Time;durP1;ratioP1;P1;durP2;ratioP2;P2;SDS_P1;SDS_P2;PMS_P1;PMS_P2;Temp;Humidity;BMP_temperature;BMP_pressure;BME280_temperature;BME280_humidity;BME280_pressure;Samples;Min_cycle;Max_cycle;Signal;HPM_P1;HPM_P2
2021/07/15 00:00:03;;;;;;;;;;;;;;;22.25;59.38;100748.83;445569;116;921456;-72
2021/07/15 00:01:07;;;;;;;;;;;;;;;22.27;59.29;100755.77;447387;116;921542;-72
2021/07/15 00:02:12;;;;;;;;;;;;;;;22.29;59.20;100749.90;447756;116;921581;-72
2021/07/15 00:03:17;;;;;;;;;;;;;;;22.29;59.11;100755.45;446148;118;921502;-72
2021/07/15 00:04:20;;;;;;;;;;;;;;;22.28;59.05;100748.23;453556;116;921457;-71
2021/07/15 00:05:23;;;;;;;;;;;;;;;22.27;59.02;100752.16;448620;116;921485;-72
2021/07/15 00:06:27;;;;;;;;;;;;;;;22.24;59.03;100747.99;454523;114;921562;-72
2021/07/15 00:07:30;;;;;;;;;;;;;;;22.22;59.07;100749.41;454660;116;921501;-71
2021/07/15 00:08:33;;;;;;;;;;;;;;;22.19;59.08;100748.03;448842;117;921474;-70
2021/07/15 00:09:38;;;;;;;;;;;;;;;22.17;59.12;100750.25;448968;116;921469;-71
2021/07/15 00:10:46;;;;;;;;;;;;;;;22.17;59.17;100749.42;448647;116;924002;-71
2021/07/15 00:11:49;;;;;;;;;;;;;;;22.16;59.20;100750.56;449096;118;922832;-71
2021/07/15 00:12:54;;;;;;;;;;;;;;;22.17;59.25;100750.25;450005;118;923095;-70
2021/07/15 00:13:57;;;;;;;;;;;;;;;22.17;59.27;100752.20;449473;118;922737;-71
2021/07/15 00:15:03;;;;;;;;;;;;;;;22.17;59.31;100749.42;448573;116;923121;-71
2021/07/15 00:16:08;;;;;;;;;;;;;;;22.16;59.29;100745.84;448868;118;922698;-71
2021/07/15 00:17:12;;;;;;;;;;;;;;;22.15;59.27;100749.73;451224;118;921437;-70
2021/07/15 00:18:17;;;;;;;;;;;;;;;22.16;59.23;100747.78;444801;117;922703;-69
2021/07/15 00:19:22;;;;;;;;;;;;;;;22.16;59.10;100754.17;447424;118;922726;-70
2021/07/15 00:20:26;;;;;;;;;;;;;;;22.16;58.96;100751.39;446832;118;923161;-71
2021/07/15 00:21:30;;;;;;;;;;;;;;;22.16;58.90;100748.62;447519;118;923176;-70
2021/07/15 00:22:34;;;;;;;;;;;;;;;22.16;58.87;100748.62;447485;116;922662;-71
2021/07/15 00:23:38;;;;;;;;;;;;;;;22.15;58.94;100749.73;444414;118;923614;-73
2021/07/15 00:24:42;;;;;;;;;;;;;;;22.14;58.94;100750.84;444646;118;922984;-71
2021/07/15 00:25:47;;;;;;;;;;;;;;;22.13;58.96;100751.12;447459;118;922532;-72
2021/07/15 00:26:50;;;;;;;;;;;;;;;22.11;59.00;100750.59;447366;116;922706;-68
2021/07/15 00:27:55;;;;;;;;;;;;;;;22.11;59.05;100750.59;447432;116;922711;-71
2021/07/15 00:28:58;;;;;;;;;;;;;;;22.08;59.08;100749.20;448571;116;923405;-70
2021/07/15 00:30:03;;;;;;;;;;;;;;;22.05;59.12;100750.59;447400;118;923020;-71
2021/07/15 00:31:07;;;;;;;;;;;;;;;22.02;59.18;100756.73;445652;117;923167;-71
2021/07/15 00:32:11;;;;;;;;;;;;;;;21.99;59.29;100745.39;448686;118;921470;-69
2021/07/15 00:33:15;;;;;;;;;;;;;;;21.95;59.32;100756.22;446329;118;922605;-70
2021/07/15 00:34:18;;;;;;;;;;;;;;;21.92;59.35;100755.94;447645;118;922580;-71
2021/07/15 00:35:22;;;;;;;;;;;;;;;21.88;59.37;100755.69;449365;116;922573;-71
2021/07/15 00:36:26;;;;;;;;;;;;;;;21.84;59.42;100756.52;449416;118;921521;-73
2021/07/15 00:37:29;;;;;;;;;;;;;;;21.80;59.46;100749.88;456475;116;923125;-71
2021/07/15 00:38:33;;;;;;;;;;;;;;;21.78;59.54;100754.88;450858;118;922774;-70
2021/07/15 00:39:37;;;;;;;;;;;;;;;21.75;59.63;100752.69;450070;116;922722;-71
2021/07/15 00:40:40;;;;;;;;;;;;;;;21.73;59.65;100755.73;453459;114;923097;-70
2021/07/15 00:41:44;;;;;;;;;;;;;;;21.72;59.71;100750.50;452072;115;921416;-71
2021/07/15 00:42:47;;;;;;;;;;;;;;;21.72;59.78;100744.94;446840;116;921373;-71
2021/07/15 00:43:50;;;;;;;;;;;;;;;21.72;59.81;100756.05;446444;116;921442;-72
2021/07/15 00:44:54;;;;;;;;;;;;;;;21.72;59.81;100751.33;444562;117;921403;-69
2021/07/15 00:45:57;;;;;;;;;;;;;;;21.73;59.81;100752.13;447394;118;921476;-71
2021/07/15 00:47:00;;;;;;;;;;;;;;;21.72;59.84;100753.27;453311;116;921401;-72
2021/07/15 00:48:04;;;;;;;;;;;;;;;21.71;59.80;100754.38;453751;114;921419;-71
2021/07/15 00:49:07;;;;;;;;;;;;;;;21.70;59.78;100758.27;454065;114;921611;-71
2021/07/15 00:50:11;;;;;;;;;;;;;;;21.67;59.75;100754.09;447767;118;921441;-71
2021/07/15 00:51:16;;;;;;;;;;;;;;;21.63;59.73;100755.78;448094;118;922468;-71
2021/07/15 00:52:20;;;;;;;;;;;;;;;21.60;59.71;100757.20;454103;116;921512;-71
2021/07/15 00:53:24;;;;;;;;;;;;;;;21.56;59.81;100758.86;448360;117;922074;-71
2021/07/15 00:54:28;;;;;;;;;;;;;;;21.55;59.99;100757.22;449041;118;921573;-71
2021/07/15 00:55:33;;;;;;;;;;;;;;;21.53;60.06;100762.22;450109;118;921368;-71
2021/07/15 00:56:36;;;;;;;;;;;;;;;21.53;60.14;100753.89;449446;116;921566;-71
2021/07/15 00:57:39;;;;;;;;;;;;;;;21.55;60.17;100757.22;448090;116;921455;-72
2021/07/15 00:58:44;;;;;;;;;;;;;;;21.58;60.13;100753.03;442635;118;922477;-71
2021/07/15 00:59:50;;;;;;;;;;;;;;;21.62;59.93;100756.89;448384;118;921500;-70
2021/07/15 01:00:53;;;;;;;;;;;;;;;21.64;59.70;100757.45;448327;116;923192;-72
2021/07/15 01:01:57;;;;;;;;;;;;;;;21.65;59.53;100756.34;442667;118;922807;-69
2021/07/15 01:03:01;;;;;;;;;;;;;;;21.67;59.42;100758.84;440965;119;922652;-71
2021/07/15 01:04:05;;;;;;;;;;;;;;;21.68;59.28;100763.25;439573;119;923871;-70
2021/07/15 01:05:10;;;;;;;;;;;;;;;21.70;59.14;100758.27;447511;117;922718;-71
2021/07/15 01:06:17;;;;;;;;;;;;;;;21.71;59.02;100751.60;446906;117;923133;-69
2021/07/15 01:07:20;;;;;;;;;;;;;;;21.70;58.90;100759.09;447833;117;922715;-72
2021/07/15 01:08:24;;;;;;;;;;;;;;;21.72;58.80;100753.27;445851;118;922767;-69
2021/07/15 01:09:29;;;;;;;;;;;;;;;21.72;58.69;100756.88;446598;118;922756;-70
2021/07/15 01:10:34;;;;;;;;;;;;;;;21.73;58.57;100752.96;447771;117;922661;-70
2021/07/15 01:11:40;;;;;;;;;;;;;;;21.73;58.48;100750.19;447999;117;923129;-70
2021/07/15 01:12:45;;;;;;;;;;;;;;;21.74;58.39;100753.80;447248;117;921497;-69
2021/07/15 01:13:51;;;;;;;;;;;;;;;21.73;58.33;100752.13;447755;116;923394;-69
2021/07/15 01:14:56;;;;;;;;;;;;;;;21.73;58.28;100746.58;448640;118;923054;-70
2021/07/15 01:16:08;;;;;;;;;;;;;;;21.72;58.22;100756.05;447619;118;922686;-71
2021/07/15 01:17:13;;;;;;;;;;;;;;;21.69;58.22;100754.66;448904;118;923868;-69
2021/07/15 01:18:36;;;;;;;;;;;;;;;21.68;58.19;100749.37;447496;116;923218;-71
2021/07/15 01:19:47;;;;;;;;;;;;;;;21.67;58.16;100748.55;442796;120;922731;-70
2021/07/15 01:21:02;;;;;;;;;;;;;;;21.66;58.13;100746.91;443143;118;924094;-71
2021/07/15 01:22:16;;;;;;;;;;;;;;;21.67;58.09;100748.55;441458;118;923357;-69
2021/07/15 01:23:22;;;;;;;;;;;;;;;21.67;58.02;100748.55;449149;117;923525;-70
2021/07/15 01:24:27;;;;;;;;;;;;;;;21.67;57.97;100751.32;439662;119;922711;-68
2021/07/15 01:25:45;;;;;;;;;;;;;;;21.66;57.92;100746.91;436218;120;923140;-69
2021/07/15 01:26:56;;;;;;;;;;;;;;;21.65;57.92;100756.34;445853;117;922664;-70
2021/07/15 01:28:02;;;;;;;;;;;;;;;21.62;58.08;100751.34;443245;117;923083;-69
2021/07/15 01:29:24;;;;;;;;;;;;;;;21.58;58.16;100755.81;446397;118;921682;-70
2021/07/15 01:30:34;;;;;;;;;;;;;;;21.53;58.19;100742.79;439932;118;922710;-69
2021/07/15 01:31:40;;;;;;;;;;;;;;;21.49;58.25;100751.97;446785;117;921547;-72
2021/07/15 01:33:02;;;;;;;;;;;;;;;21.45;58.32;100751.69;439914;117;921511;-70
2021/07/15 01:34:08;;;;;;;;;;;;;;;21.44;58.38;100750.05;439608;118;921475;-71
2021/07/15 01:35:13;;;;;;;;;;;;;;;21.44;58.35;100751.99;439668;117;921460;-70
2021/07/15 01:36:22;;;;;;;;;;;;;;;21.44;58.34;100754.77;439778;117;921609;-71
2021/07/15 01:37:25;;;;;;;;;;;;;;;21.43;58.31;100753.93;440813;117;921485;-70
2021/07/15 01:38:30;;;;;;;;;;;;;;;21.43;58.31;100753.93;441327;117;921479;-71
2021/07/15 01:39:35;;;;;;;;;;;;;;;21.44;58.28;100760.31;441364;120;921491;-70
2021/07/15 01:40:41;;;;;;;;;;;;;;;21.44;58.24;100757.54;441315;117;921530;-69
2021/07/15 01:41:46;;;;;;;;;;;;;;;21.44;58.23;100757.54;440495;118;921464;-71
2021/07/15 01:42:51;;;;;;;;;;;;;;;21.43;58.19;100759.48;441971;120;922047;-70
2021/07/15 01:44:05;;;;;;;;;;;;;;;21.42;58.14;100759.75;442374;120;921448;-70
2021/07/15 01:45:08;;;;;;;;;;;;;;;21.41;58.23;100755.31;440959;118;921453;-71
2021/07/15 01:46:13;;;;;;;;;;;;;;;21.41;58.21;100755.31;440273;117;921480;-71
2021/07/15 01:47:16;;;;;;;;;;;;;;;21.39;58.22;100752.02;437314;120;921461;-70
2021/07/15 01:48:20;;;;;;;;;;;;;;;21.41;58.16;100758.09;439557;117;921521;-70
2021/07/15 01:49:24;;;;;;;;;;;;;;;21.41;58.08;100749.77;440089;117;922628;-69
2021/07/15 01:50:28;;;;;;;;;;;;;;;21.41;58.01;100758.09;440520;117;922695;-73
2021/07/15 01:51:35;;;;;;;;;;;;;;;21.39;58.03;100755.59;440843;120;922672;-72
2021/07/15 01:52:39;;;;;;;;;;;;;;;21.39;58.02;100757.56;438427;120;921555;-70
2021/07/15 01:53:43;;;;;;;;;;;;;;;21.38;57.99;100753.95;440012;117;922716;-71
2021/07/15 01:54:50;;;;;;;;;;;;;;;21.38;58.03;100765.05;440912;117;922669;-71
2021/07/15 01:55:54;;;;;;;;;;;;;;;21.38;57.99;100758.66;439555;120;921509;-71
2021/07/15 01:56:58;;;;;;;;;;;;;;;21.38;57.99;100756.72;439546;120;921599;-71
2021/07/15 01:58:02;;;;;;;;;;;;;;;21.38;57.97;100758.66;440518;117;922669;-73
2021/07/15 01:59:07;;;;;;;;;;;;;;;21.37;57.95;100751.45;445274;115;923030;-72
2021/07/15 02:00:11;;;;;;;;;;;;;;;21.36;58.01;100750.62;450173;117;922601;-73
2021/07/15 02:01:17;;;;;;;;;;;;;;;21.36;58.05;100755.33;449846;116;922934;-73
2021/07/15 02:02:22;;;;;;;;;;;;;;;21.33;58.07;100756.73;450766;115;922987;-70
2021/07/15 02:03:28;;;;;;;;;;;;;;;21.33;58.13;100758.69;450170;115;923815;-71
2021/07/15 02:04:32;;;;;;;;;;;;;;;21.33;58.18;100758.69;453397;117;921457;-71
2021/07/15 02:05:36;;;;;;;;;;;;;;;21.32;58.20;100755.08;448561;115;922675;-70
2021/07/15 02:06:41;;;;;;;;;;;;;;;21.32;58.22;100760.62;449194;115;921430;-72
2021/07/15 02:07:45;;;;;;;;;;;;;;;21.32;58.22;100765.34;448882;117;921423;-69
2021/07/15 02:08:50;;;;;;;;;;;;;;;21.32;58.25;100763.39;447634;117;922551;-71
2021/07/15 02:09:54;;;;;;;;;;;;;;;21.31;58.26;100763.67;448400;117;921434;-70
2021/07/15 02:10:59;;;;;;;;;;;;;;;21.28;58.28;100762.27;448849;115;921583;-71
2021/07/15 02:12:02;;;;;;;;;;;;;;;21.26;58.40;100760.91;448429;115;921411;-72
2021/07/15 02:13:08;;;;;;;;;;;;;;;21.23;58.51;100765.89;449273;117;921867;-70
2021/07/15 02:14:13;;;;;;;;;;;;;;;21.19;58.65;100772.29;448352;117;922727;-71
2021/07/15 02:15:17;;;;;;;;;;;;;;;21.16;58.84;100767.31;449080;115;922946;-71
2021/07/15 02:16:21;;;;;;;;;;;;;;;21.14;59.04;100766.72;449629;115;922632;-70
2021/07/15 02:17:25;;;;;;;;;;;;;;;21.14;59.19;100772.27;450630;117;923443;-71
2021/07/15 02:18:29;;;;;;;;;;;;;;;21.11;59.34;100768.13;450257;117;921665;-71
2021/07/15 02:19:34;;;;;;;;;;;;;;;21.08;59.50;100773.39;450487;115;921475;-70
2021/07/15 02:20:38;;;;;;;;;;;;;;;21.03;59.62;100768.69;449811;115;921476;-71
2021/07/15 02:21:41;;;;;;;;;;;;;;;20.99;59.80;100763.98;451127;117;922657;-71
2021/07/15 02:22:46;;;;;;;;;;;;;;;20.95;59.97;100768.43;451083;117;922711;-71
2021/07/15 02:23:49;;;;;;;;;;;;;;;20.90;60.09;100772.02;450143;117;922688;-71
2021/07/15 02:24:54;;;;;;;;;;;;;;;20.88;60.24;100768.71;449143;115;922668;-71
2021/07/15 02:25:58;;;;;;;;;;;;;;;20.85;60.35;100769.25;452152;117;922739;-69
2021/07/15 02:27:04;;;;;;;;;;;;;;;20.82;60.41;100769.81;452052;117;921526;-70
2021/07/15 02:28:09;;;;;;;;;;;;;;;20.79;60.53;100776.73;447288;117;923307;-70
2021/07/15 02:29:12;;;;;;;;;;;;;;;20.78;60.60;100769.52;448844;115;921457;-71
2021/07/15 02:30:17;;;;;;;;;;;;;;;20.77;60.71;100773.43;448576;117;921523;-72
2021/07/15 02:31:22;;;;;;;;;;;;;;;20.78;60.71;100774.27;447499;117;921458;-71
2021/07/15 02:32:25;;;;;;;;;;;;;;;20.79;60.81;100776.73;449526;115;921475;-70
2021/07/15 02:33:29;;;;;;;;;;;;;;;20.80;60.86;100772.03;448961;115;921440;-71
2021/07/15 02:34:34;;;;;;;;;;;;;;;20.80;60.88;100764.55;448654;117;921405;-70
2021/07/15 02:35:39;;;;;;;;;;;;;;;20.82;60.83;100769.81;448660;117;921574;-71
2021/07/15 02:36:43;;;;;;;;;;;;;;;20.85;60.78;100769.25;449294;115;921510;-71
2021/07/15 02:37:48;;;;;;;;;;;;;;;20.87;60.73;100775.36;450369;115;921475;-71
2021/07/15 02:38:52;;;;;;;;;;;;;;;20.91;60.65;100767.30;449555;117;921446;-71
2021/07/15 02:39:55;;;;;;;;;;;;;;;20.92;60.63;100764.27;449051;117;921528;-70
2021/07/15 02:40:59;;;;;;;;;;;;;;;20.94;60.58;100770.38;450011;115;921722;-72
2021/07/15 02:42:03;;;;;;;;;;;;;;;20.94;60.45;100767.59;450045;117;921454;-70
2021/07/15 02:43:06;;;;;;;;;;;;;;;20.94;60.44;100764.83;450182;116;922694;-71
2021/07/15 02:44:10;;;;;;;;;;;;;;;20.94;60.48;100767.59;449429;118;922666;-71
2021/07/15 02:45:15;;;;;;;;;;;;;;;20.93;60.47;100771.48;449243;116;921401;-70
2021/07/15 02:46:19;;;;;;;;;;;;;;;20.93;60.44;100770.64;449907;118;921428;-71
2021/07/15 02:47:23;;;;;;;;;;;;;;;20.92;60.43;100772.58;451038;116;921377;-71
2021/07/15 02:48:26;;;;;;;;;;;;;;;20.91;60.36;100770.08;452998;116;922693;-71
2021/07/15 02:49:30;;;;;;;;;;;;;;;20.90;60.31;100769.24;453423;115;921982;-71
2021/07/15 02:50:33;;;;;;;;;;;;;;;20.88;60.24;100767.88;453511;116;921524;-71
2021/07/15 02:51:36;;;;;;;;;;;;;;;20.86;60.28;100770.92;451388;116;921582;-71
2021/07/15 02:52:39;;;;;;;;;;;;;;;20.85;60.34;100766.48;451959;116;921612;-71
2021/07/15 02:53:44;;;;;;;;;;;;;;;20.84;60.41;100770.35;452760;115;921640;-71
2021/07/15 02:54:47;;;;;;;;;;;;;;;20.85;60.43;100773.95;452563;114;921547;-71
2021/07/15 02:55:52;;;;;;;;;;;;;;;20.85;60.50;100768.41;452896;116;923632;-71
2021/07/15 02:57:00;;;;;;;;;;;;;;;20.86;60.50;100776.46;453187;116;921574;-71
2021/07/15 02:58:11;;;;;;;;;;;;;;;20.86;60.51;100770.92;453508;115;922591;-72
2021/07/15 02:59:23;;;;;;;;;;;;;;;20.85;60.60;100768.41;452271;115;922678;-71
2021/07/15 03:00:27;;;;;;;;;;;;;;;20.85;60.64;100772.02;447939;118;922380;-70
2021/07/15 03:01:33;;;;;;;;;;;;;;;20.85;60.72;100769.25;448454;118;923104;-70
2021/07/15 03:02:54;;;;;;;;;;;;;;;20.86;60.80;100767.31;448242;116;923104;-70
2021/07/15 03:04:01;;;;;;;;;;;;;;;20.87;60.90;100769.81;448706;118;923111;-71
2021/07/15 03:05:13;;;;;;;;;;;;;;;20.87;60.99;100767.04;448826;116;925303;-72
2021/07/15 03:06:18;;;;;;;;;;;;;;;20.86;61.11;100768.14;441324;118;922740;-71
2021/07/15 03:07:23;;;;;;;;;;;;;;;20.87;61.13;100764.27;448338;116;922597;-70
2021/07/15 03:08:31;;;;;;;;;;;;;;;20.88;61.13;100762.33;447723;118;921714;-71
2021/07/15 03:09:35;;;;;;;;;;;;;;;20.89;61.23;100761.23;438945;121;921771;-73
2021/07/15 03:10:40;;;;;;;;;;;;;;;20.90;61.39;100769.24;440076;118;923610;-70
2021/07/15 03:11:51;;;;;;;;;;;;;;;20.91;61.44;100762.59;449179;116;923180;-72
2021/07/15 03:12:57;;;;;;;;;;;;;;;20.92;61.38;100772.58;433623;122;922770;-71
2021/07/15 03:14:02;;;;;;;;;;;;;;;20.94;61.30;100767.59;445286;116;922869;-71
2021/07/15 03:15:06;;;;;;;;;;;;;;;20.98;61.28;100770.63;447069;118;921519;-73
2021/07/15 03:16:10;;;;;;;;;;;;;;;20.99;61.30;100773.13;446800;116;921499;-71
2021/07/15 03:17:14;;;;;;;;;;;;;;;21.00;61.20;100774.80;447933;118;921492;-71
2021/07/15 03:18:19;;;;;;;;;;;;;;;21.03;61.19;100765.08;447408;118;922665;-70
2021/07/15 03:19:24;;;;;;;;;;;;;;;21.03;61.22;100767.85;447766;118;921362;-70
2021/07/15 03:20:33;;;;;;;;;;;;;;;21.05;61.17;100774.80;448077;118;923062;-72
2021/07/15 03:21:38;;;;;;;;;;;;;;;21.06;61.24;100775.63;448062;116;922760;-71
2021/07/15 03:22:44;;;;;;;;;;;;;;;21.07;61.27;100775.33;447927;118;923115;-70
2021/07/15 03:23:49;;;;;;;;;;;;;;;21.07;61.35;100775.33;447699;118;921435;-70
2021/07/15 03:24:54;;;;;;;;;;;;;;;21.09;61.34;100778.66;448480;116;921526;-70
2021/07/15 03:25:57;;;;;;;;;;;;;;;21.10;61.24;100779.49;448543;118;921455;-70
2021/07/15 03:27:04;;;;;;;;;;;;;;;21.09;61.30;100767.56;449079;118;921414;-70
2021/07/15 03:28:14;;;;;;;;;;;;;;;21.11;61.35;100770.91;449157;118;921906;-70
2021/07/15 03:29:13;;;;;;;;;;;;;;;21.13;61.34;100773.38;448742;116;921356;-72
2021/07/15 03:30:18;;;;;;;;;;;;;;;21.15;61.32;100771.20;448841;116;921463;-70
2021/07/15 03:31:22;;;;;;;;;;;;;;;21.16;61.28;100770.92;451167;118;921363;-71
2021/07/15 03:32:27;;;;;;;;;;;;;;;21.18;61.29;100762.30;450997;116;921464;-69
2021/07/15 03:33:31;;;;;;;;;;;;;;;21.19;61.24;100766.74;450135;116;921577;-71
2021/07/15 03:34:36;;;;;;;;;;;;;;;21.22;61.22;100766.20;447285;116;921450;-71
2021/07/15 03:35:42;;;;;;;;;;;;;;;21.23;61.21;100767.84;446689;118;921564;-71
2021/07/15 03:36:50;;;;;;;;;;;;;;;21.25;61.22;100762.85;447009;116;921470;-71
2021/07/15 03:37:52;;;;;;;;;;;;;;;21.27;61.21;100768.96;447478;118;922619;-70
2021/07/15 03:38:58;;;;;;;;;;;;;;;21.30;61.22;100767.55;447300;118;922705;-71
2021/07/15 03:40:02;;;;;;;;;;;;;;;21.31;61.23;100771.98;446958;118;922578;-70
2021/07/15 03:41:07;;;;;;;;;;;;;;;21.33;61.23;100770.61;447019;118;923178;-71
2021/07/15 03:42:11;;;;;;;;;;;;;;;21.34;61.31;100758.38;447949;116;922679;-70
2021/07/15 03:43:15;;;;;;;;;;;;;;;21.37;61.37;100768.09;447799;118;923142;-70
2021/07/15 03:44:19;;;;;;;;;;;;;;;21.39;61.39;100769.45;448346;118;922007;-71
2021/07/15 03:45:23;;;;;;;;;;;;;;;21.41;61.28;100760.86;448155;118;921414;-71
2021/07/15 03:46:27;;;;;;;;;;;;;;;21.43;61.16;100764.20;441732;118;921686;-71
2021/07/15 03:47:31;;;;;;;;;;;;;;;21.46;61.31;100769.16;441648;118;922986;-70
2021/07/15 03:48:36;;;;;;;;;;;;;;;21.48;61.28;100767.78;448773;118;921555;-71
2021/07/15 03:49:41;;;;;;;;;;;;;;;21.50;61.22;100764.73;441714;118;921564;-71
2021/07/15 03:50:45;;;;;;;;;;;;;;;21.52;61.16;100768.03;450376;117;922604;-71
2021/07/15 03:51:50;;;;;;;;;;;;;;;21.56;61.06;100766.35;442101;118;921609;-67
2021/07/15 03:52:58;;;;;;;;;;;;;;;21.59;60.99;100768.58;451078;117;923266;-71
2021/07/15 03:54:02;;;;;;;;;;;;;;;21.62;60.94;100773.55;443474;118;922683;-70
2021/07/15 03:55:07;;;;;;;;;;;;;;;21.64;60.87;100777.71;450893;116;922976;-72
2021/07/15 03:56:13;;;;;;;;;;;;;;;21.66;60.83;100774.66;450590;117;923488;-70
2021/07/15 03:57:17;;;;;;;;;;;;;;;21.69;60.87;100768.53;443001;120;922549;-71
2021/07/15 03:58:22;;;;;;;;;;;;;;;21.73;60.84;100768.78;449297;116;922695;-71
2021/07/15 03:59:26;;;;;;;;;;;;;;;21.79;60.78;100773.20;449283;116;922732;-70
2021/07/15 04:00:30;;;;;;;;;;;;;;;21.82;60.71;100776.26;445603;116;922692;-69
2021/07/15 04:01:35;;;;;;;;;;;;;;;21.86;60.61;100771.78;446621;117;922643;-70
2021/07/15 04:02:39;;;;;;;;;;;;;;;21.90;60.53;100764.54;447198;117;922714;-70
2021/07/15 04:03:44;;;;;;;;;;;;;;;21.94;60.48;100764.82;446681;117;922748;-69
2021/07/15 04:04:55;;;;;;;;;;;;;;;21.98;60.41;100771.48;447402;116;923583;-71
2021/07/15 04:06:00;;;;;;;;;;;;;;;22.02;60.37;100773.40;446586;118;923296;-70
2021/07/15 04:07:05;;;;;;;;;;;;;;;22.06;60.19;100768.09;446340;116;921626;-70
2021/07/15 04:08:08;;;;;;;;;;;;;;;22.10;60.06;100771.15;447762;116;922667;-70
2021/07/15 04:09:13;;;;;;;;;;;;;;;22.13;59.96;100770.56;447730;118;921458;-69
2021/07/15 04:10:17;;;;;;;;;;;;;;;22.16;59.84;100770.84;448872;118;922666;-67
2021/07/15 04:11:22;;;;;;;;;;;;;;;22.19;59.72;100764.70;452257;117;921463;-70
2021/07/15 04:12:27;;;;;;;;;;;;;;;22.21;59.65;100776.36;447826;118;921693;-69
2021/07/15 04:13:32;;;;;;;;;;;;;;;22.23;59.57;100773.27;448173;118;921513;-69
2021/07/15 04:14:41;;;;;;;;;;;;;;;22.26;59.63;100769.94;449179;118;921522;-69
2021/07/15 04:16:03;;;;;;;;;;;;;;;22.30;59.62;100771.02;452571;115;921406;-70
2021/07/15 04:17:07;;;;;;;;;;;;;;;22.33;59.66;100768.48;449287;117;921944;-71
2021/07/15 04:18:12;;;;;;;;;;;;;;;22.37;59.55;100774.30;448684;118;921442;-71
2021/07/15 04:19:16;;;;;;;;;;;;;;;22.40;59.54;100782.88;448481;119;921418;-69
2021/07/15 04:20:20;;;;;;;;;;;;;;;22.43;59.52;100779.55;447880;117;921375;-70
2021/07/15 04:21:25;;;;;;;;;;;;;;;22.47;59.40;100782.56;448477;117;921604;-70
2021/07/15 04:22:28;;;;;;;;;;;;;;;22.49;59.31;100777.56;446494;118;921520;-70
2021/07/15 04:23:32;;;;;;;;;;;;;;;22.53;59.15;100777.80;445741;118;921415;-70
2021/07/15 04:24:36;;;;;;;;;;;;;;;22.55;58.99;100779.16;446465;117;921590;-69
2021/07/15 04:25:39;;;;;;;;;;;;;;;22.58;58.85;100781.38;447091;117;921461;-70
2021/07/15 04:26:43;;;;;;;;;;;;;;;22.61;58.85;100779.95;447434;118;921476;-70
2021/07/15 04:27:51;;;;;;;;;;;;;;;22.63;58.88;100781.33;447154;118;921453;-70
2021/07/15 04:28:55;;;;;;;;;;;;;;;22.65;58.92;100781.88;447201;117;921549;-69
2021/07/15 04:30:03;;;;;;;;;;;;;;;22.68;58.86;100781.28;447931;117;921560;-70
2021/07/15 04:31:08;;;;;;;;;;;;;;;22.69;58.90;100780.17;447573;118;921508;-70
2021/07/15 04:32:26;;;;;;;;;;;;;;;22.72;58.88;100785.17;453063;117;921420;-70
2021/07/15 04:33:30;;;;;;;;;;;;;;;22.75;58.88;100786.55;448061;117;921655;-71
2021/07/15 04:34:34;;;;;;;;;;;;;;;22.77;58.83;100787.10;447354;117;921457;-69
2021/07/15 04:35:38;;;;;;;;;;;;;;;22.78;58.79;100784.01;449150;118;921415;-69
2021/07/15 04:36:43;;;;;;;;;;;;;;;22.80;58.79;100786.51;450107;118;921620;-71
2021/07/15 04:37:47;;;;;;;;;;;;;;;22.81;58.76;100780.66;447368;117;921607;-70
2021/07/15 04:38:51;;;;;;;;;;;;;;;22.84;58.73;100782.84;448632;116;921476;-69
2021/07/15 04:39:55;;;;;;;;;;;;;;;22.88;58.74;100785.06;450994;118;921527;-71
2021/07/15 04:40:58;;;;;;;;;;;;;;;22.91;58.71;100785.30;450073;118;922616;-71
2021/07/15 04:42:03;;;;;;;;;;;;;;;22.94;58.70;100783.87;445555;116;922653;-70
2021/07/15 04:43:07;;;;;;;;;;;;;;;22.98;58.67;100787.75;446628;118;923115;-72
2021/07/15 04:44:12;;;;;;;;;;;;;;;23.00;58.51;100788.27;446648;118;923106;-70
2021/07/15 04:45:16;;;;;;;;;;;;;;;23.02;58.51;100794.38;445659;118;922702;-69
2021/07/15 04:46:20;;;;;;;;;;;;;;;23.04;58.47;100787.41;446645;117;923193;-69
2021/07/15 04:47:25;;;;;;;;;;;;;;;23.08;58.34;100793.20;448104;117;922666;-69
2021/07/15 04:48:28;;;;;;;;;;;;;;;23.11;58.32;100789.83;445787;118;922659;-71
2021/07/15 04:49:32;;;;;;;;;;;;;;;23.13;58.20;100791.21;445824;118;921572;-69
2021/07/15 04:50:36;;;;;;;;;;;;;;;23.17;58.15;100791.44;444618;117;925893;-67
2021/07/15 04:51:40;;;;;;;;;;;;;;;23.19;58.15;100797.55;447139;118;923150;-70
2021/07/15 04:52:46;;;;;;;;;;;;;;;23.22;58.16;100797.78;447931;118;922650;-69
2021/07/15 04:53:50;;;;;;;;;;;;;;;23.24;58.15;100795.55;444645;119;923476;-71
2021/07/15 04:54:55;;;;;;;;;;;;;;;23.27;58.11;100799.68;447811;117;921533;-70
2021/07/15 04:56:00;;;;;;;;;;;;;;;23.31;58.21;100799.94;451167;117;923138;-71
2021/07/15 04:57:05;;;;;;;;;;;;;;;23.32;58.29;100796.05;445474;117;921883;-68
2021/07/15 04:58:10;;;;;;;;;;;;;;;23.34;58.18;100794.61;448883;118;923493;-70
2021/07/15 04:59:14;;;;;;;;;;;;;;;23.37;58.05;100804.33;448386;117;923094;-68
2021/07/15 05:00:19;;;;;;;;;;;;;;;23.39;57.96;100800.11;448787;117;922820;-71
2021/07/15 05:01:23;;;;;;;;;;;;;;;23.43;58.04;100792.03;453975;116;922617;-70
2021/07/15 05:02:27;;;;;;;;;;;;;;;23.45;57.90;100790.59;451471;118;922671;-71
2021/07/15 05:03:32;;;;;;;;;;;;;;;23.48;57.78;100790.05;449976;116;922992;-68
2021/07/15 05:04:36;;;;;;;;;;;;;;;23.51;57.74;100786.66;452455;116;923075;-70
2021/07/15 05:05:40;;;;;;;;;;;;;;;23.54;57.66;100790.82;455446;115;925970;-69
2021/07/15 05:06:44;;;;;;;;;;;;;;;23.59;57.50;100787.98;455754;114;922660;-71
2021/07/15 05:07:47;;;;;;;;;;;;;;;23.61;57.42;100792.11;455881;115;923076;-69
2021/07/15 05:08:51;;;;;;;;;;;;;;;23.64;57.34;100790.70;455651;114;922619;-71
2021/07/15 05:09:55;;;;;;;;;;;;;;;23.67;57.29;100787.30;452673;116;922326;-70
2021/07/15 05:10:59;;;;;;;;;;;;;;;23.69;57.25;100785.89;448245;114;921610;-71
2021/07/15 05:12:03;;;;;;;;;;;;;;;23.73;57.13;100785.28;456631;114;921555;-68
2021/07/15 05:13:06;;;;;;;;;;;;;;;23.75;57.11;100781.09;456906;114;921504;-70
2021/07/15 05:14:09;;;;;;;;;;;;;;;23.79;57.11;100779.36;456340;116;921352;-72
2021/07/15 05:15:12;;;;;;;;;;;;;;;23.82;57.21;100777.95;456400;116;921428;-67
2021/07/15 05:16:16;;;;;;;;;;;;;;;23.85;57.32;100777.34;456993;114;921427;-69
2021/07/15 05:17:20;;;;;;;;;;;;;;;23.88;57.31;100771.16;450662;117;921471;-70
2021/07/15 05:18:23;;;;;;;;;;;;;;;23.92;57.22;100769.46;447963;116;921818;-70
2021/07/15 05:19:27;;;;;;;;;;;;;;;23.95;57.18;100766.06;448659;118;921519;-69
2021/07/15 05:20:30;;;;;;;;;;;;;;;23.97;56.93;100766.61;451023;116;921598;-70
2021/07/15 05:21:34;;;;;;;;;;;;;;;23.99;56.86;100765.16;449373;115;921554;-71
2021/07/15 05:22:38;;;;;;;;;;;;;;;24.03;56.78;100768.20;451363;115;921540;-70
2021/07/15 05:23:43;;;;;;;;;;;;;;;24.05;56.61;100775.11;450830;117;923206;-70
2021/07/15 05:24:47;;;;;;;;;;;;;;;24.08;56.36;100771.73;451229;115;922578;-69
2021/07/15 05:25:52;;;;;;;;;;;;;;;24.11;56.16;100771.12;447986;115;922727;-70
2021/07/15 05:26:56;;;;;;;;;;;;;;;24.14;55.95;100764.14;446752;115;923127;-70
2021/07/15 05:27:59;;;;;;;;;;;;;;;24.18;55.85;100769.95;448116;117;923159;-70
2021/07/15 05:29:03;;;;;;;;;;;;;;;24.21;55.73;100764.60;448657;117;922623;-70
2021/07/15 05:30:08;;;;;;;;;;;;;;;24.24;55.63;100755.66;448309;115;922764;-71